EHRDEHGG

Guest
Details From EHRD - Rotterdam
To EHGG - Eelde
Flight Number -
Tags Routegen Generated
Created
Modified
Stats Distance 104 nm / 192 km
Max Altitude 300 ft / 91 m
Waypoints 8
Social Downloads 20
Likes 0
Share

Download

Looking for another format? Having issues loading an existing format? Contact us
Advertisement - Login to hide

Notes

Departing runway 5 EHRD. Arriving runway 5 EHGG.

Route

EHRD +52.00_+004.55 +52.01_+004.57 +52.02_+004.59 +52.45_+005.34 +53.06_+006.46 +53.07_+006.47 EHGG

ID Type Via Altitude (ft/m) Position (lat/lon) Dist (leg/tot) Name
O EHRD APT - 0 / 0 51.96285 / 4.45508 - / 0 nm
+52.00_+004.55 LATLON - 300 / 91 52.00227 / 4.55361 4 / 4 nm
+52.01_+004.57 LATLON - 300 / 91 52.01119 / 4.57213 0 / 5 nm
+52.02_+004.59 LATLON - 300 / 91 52.02107 / 4.58932 0 / 6 nm
+52.45_+005.34 LATLON - 300 / 91 52.44518 / 5.33715 37 / 43 nm
+53.06_+006.46 LATLON - 300 / 91 53.06027 / 6.45694 54 / 98 nm
+53.07_+006.47 LATLON - 300 / 91 53.07018 / 6.47450 0 / 99 nm
O EHGG APT - 0 / 0 53.11497 / 6.56915 4 / 103 nm

Altitude Profile

Advertisement - Login to hide

EHRD

Details ICAO EHRD (RTM)
Name Rotterdam The Hague
Region Netherlands
Timezone Europe/Amsterdam (UTC+2.0)
Stats Elevation -15 ft / -5 m (AMSL)
Location 51.957500° 4.441690°
Runways 1
Magnetic Variation 1.542° E

METAR

EHRD 141725Z AUTO 31008KT 260V010 9999 NSC 24/12 Q1019 NOSIG

Decode

TAF

TAF EHRD 141057Z 1412/1518 27010KT CAVOK BECMG 1414/1417 31010KT BECMG 1418/1421 01006KT

Decode

Departure Runways

ID Width Length Bearing (true/mag) Surface Threshold Overrun Markings Lighting
06 148 ft / 45 m 7,198 ft / 2,194 m 57.03° / 55.48° ASPHALT 643 ft / 196 m 0 ft / 0 m UK-PREC-APP CENTERLINE EDGE THRESHOLD MALSR REIL-UNI
24 148 ft / 45 m 7,198 ft / 2,194 m 237.05° / 235.51° ASPHALT 646 ft / 197 m 0 ft / 0 m PREC-APP CENTERLINE EDGE THRESHOLD MALSR REIL-UNI

EHGG

Details ICAO EHGG (GRQ)
Name Groningen Eelde Airport
Region Netherlands
Timezone Europe/Amsterdam (UTC+2.0)
Stats Elevation 17 ft / 5 m (AMSL)
Location 53.118000° 6.575580°
Runways 1
Magnetic Variation 2.191° E

METAR

EHGG 141725Z AUTO 33010KT 280V010 9999 NSC 21/15 Q1018 NOSIG

Decode

TAF

TAF EHGG 141105Z 1412/1518 24010KT CAVOK BECMG 1418/1421 35005KT

Decode

Destination Runways

ID Width Length Bearing (true/mag) Surface Threshold Overrun Markings Lighting
05 148 ft / 45 m 8,185 ft / 2,495 m 51.78° / 49.59° ASPHALT 0 ft / 0 m 98 ft / 30 m PREC-APP CENTERLINE EDGE THRESHOLD SALS
23 148 ft / 45 m 8,185 ft / 2,495 m 231.81° / 229.62° ASPHALT 0 ft / 0 m 98 ft / 30 m PREC-APP CENTERLINE EDGE THRESHOLD ALSF-I

Approach Navaids

Runway Type Ident Frequency Range Bearing (true/mag) Slope Elevation
23 GS GRO 109.90 MHz 10 nm / 19 km 231.80° / 229.61 ° 3.00° 17 ft / 5 m (AMSL)
23 LOC-ILS GRO 109.90 MHz 18 nm / 33 km 231.80° / 229.61 ° - 17 ft / 5 m (AMSL)

Popular Alternatives